Arlington, Virginia
Current Conditions -  °F | °C
As of 12:52 PM on Monday 26 Jan 2015 (Local Time) from KDCA Reporting Station
Light Snow Light Snow  
Wind Chill: 26°   Ceiling: 900
Heat Index: 35°   Visibility: 4mi
Dew Point: 29°   Wind: 13mph
Humidity: 78%   Direction: 30°NNE
Pressure: 29.74"   Gusts: NA
Location:  38.89°N, 77.09°W
Report Text: KDCA 261752Z 03011KT 4SM -RASN OVC009 02/M02 A2974 RMK AO2 SLP072 P0001 60008 T00171017 10033 20017 58022
Loading
Personal Weather Stations






























Interactive Weather Map New forecast layout! Learn more

10-Day Weather Forecast

Advertisements
Track Severe Weather on mobile